Time;durP1;ratioP1;P1;durP2;ratioP2;P2;SDS_P1;SDS_P2;PMS_P1;PMS_P2;Temp;Humidity;BMP_temperature;BMP_pressure;BME280_temperature;BME280_humidity;BME280_pressure;Samples;Min_cycle;Max_cycle;Signal;HPM_P1;HPM_P2
2022/09/23 00:01:04;;;;;;;12.07;7.45;;;8.70;99.90;;;;;;5049161;28;20518;-84
2022/09/23 00:03:32;;;;;;;12.75;7.20;;;8.70;99.90;;;;;;5082478;28;20044;-83
2022/09/23 00:06:09;;;;;;;12.10;7.28;;;8.70;99.90;;;;;;5065509;28;20494;-84
2022/09/23 00:08:37;;;;;;;11.40;6.82;;;8.70;99.90;;;;;;5082137;28;20057;-83
2022/09/23 00:11:14;;;;;;;10.20;6.95;;;8.80;99.90;;;;;;5065048;28;20044;-83
2022/09/23 00:13:43;;;;;;;11.23;6.93;;;8.70;99.90;;;;;;5069142;28;20486;-83
2022/09/23 00:16:12;;;;;;;10.00;6.55;;;8.60;99.90;;;;;;5068919;28;20045;-83
2022/09/23 00:18:39;;;;;;;10.10;6.75;;;8.60;99.90;;;;;;5069312;28;20537;-83
2022/09/23 00:21:09;;;;;;;10.90;7.35;;;8.60;99.90;;;;;;5048949;28;20120;-83
2022/09/23 00:23:37;;;;;;;11.45;6.90;;;8.60;99.90;;;;;;5033335;28;20135;-84
2022/09/23 00:26:06;;;;;;;10.93;7.25;;;8.60;99.90;;;;;;5032709;28;20044;-84
2022/09/23 00:28:33;;;;;;;10.30;6.55;;;8.50;99.90;;;;;;5032871;28;20409;-83
2022/09/23 00:31:06;;;;;;;10.55;7.15;;;8.50;99.90;;;;;;5033211;28;20061;-84
2022/09/23 00:33:33;;;;;;;11.65;7.00;;;8.50;99.90;;;;;;5040698;28;20501;-83
2022/09/23 00:36:01;;;;;;;10.88;6.50;;;8.50;99.90;;;;;;5032545;28;20038;-83
2022/09/23 00:38:28;;;;;;;11.45;6.55;;;8.50;99.90;;;;;;5016440;28;20124;-83
2022/09/23 00:40:57;;;;;;;10.63;7.25;;;8.50;99.90;;;;;;5016508;28;20073;-83
2022/09/23 00:43:37;;;;;;;12.57;6.97;;;8.40;99.90;;;;;;5032401;28;20425;-84
2022/09/23 00:46:07;;;;;;;10.60;7.10;;;8.40;99.90;;;;;;5048873;28;20041;-84
2022/09/23 00:48:36;;;;;;;10.68;6.97;;;8.40;99.90;;;;;;5048829;28;20046;-84
2022/09/23 00:51:06;;;;;;;9.77;6.35;;;8.40;99.90;;;;;;5032832;28;20723;-83
2022/09/23 00:53:33;;;;;;;14.18;6.45;;;8.40;99.90;;;;;;5032752;28;20544;-84
2022/09/23 00:56:03;;;;;;;9.73;6.25;;;8.40;99.90;;;;;;5016400;28;20100;-84
2022/09/23 00:58:33;;;;;;;10.65;6.47;;;8.40;99.90;;;;;;5044064;28;20075;-84
2022/09/23 01:01:01;;;;;;;11.25;6.85;;;8.40;99.90;;;;;;5052460;28;20034;-84
2022/09/23 01:03:28;;;;;;;10.52;6.80;;;8.80;99.90;;;;;;5036158;28;20045;-84
2022/09/23 01:05:56;;;;;;;11.93;6.80;;;8.40;99.90;;;;;;5035754;28;20037;-84
2022/09/23 01:08:25;;;;;;;10.07;6.60;;;8.40;99.90;;;;;;5068450;28;20053;-84
2022/09/23 01:10:58;;;;;;;13.43;6.75;;;8.40;99.90;;;;;;5032065;28;20042;-84
2022/09/23 01:13:38;;;;;;;10.18;6.55;;;8.50;99.90;;;;;;5047739;28;20041;-84
2022/09/23 01:16:57;;;;;;;10.30;6.78;;;8.30;99.90;;;;;;5032105;28;20103;-84
2022/09/23 01:19:44;;;;;;;10.13;6.38;;;8.40;99.90;;;;;;4993986;28;20054;-83
2022/09/23 01:22:28;;;;;;;13.20;7.28;;;8.30;99.90;;;;;;5050964;28;20567;-83
2022/09/23 01:25:07;;;;;;;11.95;7.00;;;8.30;99.90;;;;;;5051221;28;20033;-83
2022/09/23 01:28:10;;;;;;;11.57;6.97;;;8.30;99.90;;;;;;5051077;28;20075;-83
2022/09/23 01:30:46;;;;;;;10.07;6.22;;;8.30;99.90;;;;;;5043621;28;20057;-83
2022/09/23 01:33:42;;;;;;;10.35;6.70;;;8.30;99.90;;;;;;5051042;28;20068;-83
2022/09/23 01:36:34;;;;;;;13.60;6.95;;;8.30;99.90;;;;;;5061371;28;20049;-83
2022/09/23 01:39:13;;;;;;;11.63;7.10;;;8.30;99.90;;;;;;5067905;28;20553;-83
2022/09/23 01:41:57;;;;;;;10.65;6.30;;;8.30;99.90;;;;;;5051235;28;20413;-83
2022/09/23 01:44:24;;;;;;;10.65;6.40;;;8.30;99.90;;;;;;5050789;28;20045;-84
2022/09/23 01:47:07;;;;;;;10.30;6.60;;;8.20;99.90;;;;;;5051435;28;20041;-83
2022/09/23 01:49:49;;;;;;;14.35;6.82;;;8.20;99.90;;;;;;5047345;28;20569;-84
2022/09/23 01:52:40;;;;;;;11.88;6.68;;;8.20;99.90;;;;;;5053849;28;20041;-83
2022/09/23 01:55:17;;;;;;;13.85;6.70;;;8.20;99.90;;;;;;5050939;28;20129;-83
2022/09/23 01:58:08;;;;;;;12.43;6.80;;;8.20;99.90;;;;;;5051183;28;20124;-83
2022/09/23 02:00:41;;;;;;;14.95;7.70;;;8.20;99.90;;;;;;5066989;28;20089;-83
2022/09/23 02:03:19;;;;;;;13.93;7.40;;;8.30;99.90;;;;;;5050923;28;20099;-84
2022/09/23 02:05:55;;;;;;;16.85;7.65;;;8.30;99.90;;;;;;5050967;28;20041;-84
2022/09/23 02:08:41;;;;;;;15.15;7.68;;;8.30;99.90;;;;;;5050752;28;20087;-84
2022/09/23 02:11:10;;;;;;;10.00;6.80;;;8.30;99.90;;;;;;5083895;28;20457;-83
2022/09/23 02:13:57;;;;;;;12.13;7.03;;;8.50;99.90;;;;;;5050135;28;20048;-83
2022/09/23 02:16:30;;;;;;;12.73;7.32;;;8.20;99.90;;;;;;5066697;28;20055;-83
2022/09/23 02:19:05;;;;;;;11.98;7.30;;;8.20;99.90;;;;;;5067039;28;20503;-83
2022/09/23 02:21:37;;;;;;;11.35;7.47;;;8.20;99.90;;;;;;5066733;28;20041;-83
2022/09/23 02:24:25;;;;;;;9.73;6.43;;;8.20;99.90;;;;;;5067810;28;20132;-84
2022/09/23 02:27:17;;;;;;;13.43;6.78;;;8.20;99.90;;;;;;5066663;28;20041;-83
2022/09/23 02:30:01;;;;;;;9.80;6.28;;;8.20;99.90;;;;;;5046695;28;20131;-83
2022/09/23 02:32:38;;;;;;;9.65;6.00;;;8.20;99.90;;;;;;5046631;28;20038;-84
2022/09/23 02:35:31;;;;;;;10.13;6.80;;;8.20;99.90;;;;;;5030000;28;20103;-84
2022/09/23 02:38:12;;;;;;;9.65;6.30;;;8.20;99.90;;;;;;5047133;28;20037;-84
2022/09/23 02:41:08;;;;;;;9.23;6.10;;;8.20;99.90;;;;;;5030035;28;20038;-84
2022/09/23 02:44:03;;;;;;;10.48;6.30;;;8.30;99.90;;;;;;5041700;28;20133;-83
2022/09/23 02:46:30;;;;;;;9.68;6.32;;;8.30;99.90;;;;;;5030514;28;20122;-83
2022/09/23 02:49:20;;;;;;;12.57;6.22;;;8.30;99.90;;;;;;5046695;28;20041;-84
2022/09/23 02:51:47;;;;;;;11.27;6.60;;;8.30;99.90;;;;;;5039602;28;20133;-84
2022/09/23 02:54:17;;;;;;;10.93;6.22;;;8.90;99.90;;;;;;5032927;28;20553;-84
2022/09/23 02:56:44;;;;;;;9.60;6.47;;;8.30;99.90;;;;;;5048424;28;20042;-83
2022/09/23 02:59:11;;;;;;;16.08;6.88;;;8.20;99.90;;;;;;5044742;28;20038;-84
2022/09/23 03:02:06;;;;;;;11.23;6.40;;;8.30;99.90;;;;;;5047179;28;20044;-83
2022/09/23 03:04:49;;;;;;;13.13;6.75;;;8.10;99.90;;;;;;5049610;28;20041;-84
2022/09/23 03:07:31;;;;;;;9.07;6.30;;;8.10;99.90;;;;;;5040428;28;20037;-84
2022/09/23 03:10:15;;;;;;;14.75;6.70;;;8.10;99.90;;;;;;5055192;28;20045;-84
2022/09/23 03:12:56;;;;;;;10.50;6.55;;;8.10;99.90;;;;;;5045796;28;20038;-84
2022/09/23 03:15:38;;;;;;;13.60;6.40;;;8.00;99.90;;;;;;5056144;28;20441;-84
2022/09/23 03:18:14;;;;;;;10.82;6.50;;;8.00;99.90;;;;;;5082591;28;20052;-84
2022/09/23 03:20:50;;;;;;;12.13;7.43;;;7.90;99.90;;;;;;5065864;28;20056;-83
2022/09/23 03:23:24;;;;;;;13.52;6.72;;;7.90;99.90;;;;;;5066011;28;20037;-84
2022/09/23 03:25:52;;;;;;;11.98;6.63;;;7.90;99.90;;;;;;5065943;28;20072;-83
2022/09/23 03:28:21;;;;;;;10.43;6.40;;;7.90;99.90;;;;;;5065673;28;20041;-84
2022/09/23 03:30:50;;;;;;;10.80;6.20;;;7.90;99.90;;;;;;5065550;28;20045;-83
2022/09/23 03:33:21;;;;;;;9.50;6.07;;;7.80;99.90;;;;;;5049150;28;20052;-84
2022/09/23 03:38:42;;;;;;;11.35;6.28;;;7.70;99.90;;;;;;5082303;28;20081;-84
2022/09/23 03:41:15;;;;;;;11.93;6.22;;;7.70;99.90;;;;;;5082155;28;20409;-83
2022/09/23 03:43:43;;;;;;;11.75;6.43;;;7.70;99.90;;;;;;5049293;28;20052;-84
2022/09/23 03:46:11;;;;;;;10.38;6.70;;;7.70;99.90;;;;;;5066081;28;20049;-84
2022/09/23 03:48:39;;;;;;;14.57;6.70;;;7.70;99.90;;;;;;5053316;28;20055;-84
2022/09/23 03:51:20;;;;;;;11.13;6.47;;;7.70;99.90;;;;;;5053380;28;20045;-83
2022/09/23 03:53:47;;;;;;;11.95;6.07;;;7.70;99.90;;;;;;5053157;28;20041;-84
2022/09/23 03:56:14;;;;;;;12.95;6.30;;;7.70;99.90;;;;;;5037374;28;20482;-83
2022/09/23 03:58:41;;;;;;;10.20;6.43;;;7.90;99.90;;;;;;5037080;28;20034;-84
2022/09/23 04:01:07;;;;;;;9.40;5.93;;;7.60;99.90;;;;;;5053395;28;20048;-83
2022/09/23 04:03:34;;;;;;;11.75;6.65;;;7.60;99.90;;;;;;5036864;28;20056;-84
2022/09/23 04:06:00;;;;;;;9.93;5.78;;;7.60;99.90;;;;;;5036613;28;20041;-84
2022/09/23 04:08:27;;;;;;;11.75;6.40;;;7.60;99.90;;;;;;5036764;28;20136;-84
2022/09/23 04:11:02;;;;;;;9.35;6.35;;;7.60;99.90;;;;;;5036486;28;20044;-84
2022/09/23 04:13:30;;;;;;;11.60;5.77;;;7.60;99.90;;;;;;5052755;28;20042;-84
2022/09/23 04:15:57;;;;;;;12.57;6.78;;;7.60;99.90;;;;;;5052592;28;20390;-84
2022/09/23 04:18:24;;;;;;;10.07;6.55;;;7.50;99.90;;;;;;5052779;28;20055;-84
2022/09/23 04:20:50;;;;;;;10.30;5.95;;;7.90;99.90;;;;;;5052535;28;20048;-83
2022/09/23 04:23:17;;;;;;;10.15;5.65;;;7.50;99.90;;;;;;5036570;28;20486;-83
2022/09/23 04:25:47;;;;;;;13.70;6.25;;;7.50;99.90;;;;;;5068859;28;20044;-83
2022/09/23 04:28:14;;;;;;;11.55;6.25;;;7.70;99.90;;;;;;5052899;28;20128;-83
2022/09/23 04:30:42;;;;;;;12.68;6.22;;;8.10;99.90;;;;;;5052306;28;20080;-83
2022/09/23 04:33:13;;;;;;;10.30;6.05;;;7.50;99.90;;;;;;5052828;28;20033;-83
2022/09/23 04:35:42;;;;;;;9.77;5.75;;;7.50;99.90;;;;;;5068781;28;20041;-83
2022/09/23 04:38:11;;;;;;;8.38;5.47;;;7.50;99.90;;;;;;5052869;28;20474;-83
2022/09/23 04:40:38;;;;;;;10.95;6.38;;;7.50;99.90;;;;;;5068563;28;20527;-83
2022/09/23 04:43:04;;;;;;;10.82;6.63;;;7.50;99.90;;;;;;5052662;28;20124;-84
2022/09/23 04:45:31;;;;;;;11.27;6.20;;;7.60;99.90;;;;;;5052470;28;20050;-84
2022/09/23 04:47:58;;;;;;;10.35;6.18;;;7.50;99.90;;;;;;5052018;28;20111;-83
2022/09/23 04:50:25;;;;;;;11.75;6.53;;;7.50;99.90;;;;;;5036110;28;20091;-84
2022/09/23 04:52:52;;;;;;;9.20;6.07;;;7.50;99.90;;;;;;5068345;28;20040;-84
2022/09/23 04:55:20;;;;;;;11.73;6.85;;;8.10;99.90;;;;;;5052650;28;20061;-84
2022/09/23 04:57:47;;;;;;;9.32;6.30;;;7.50;99.90;;;;;;5051680;28;20432;-84
2022/09/23 05:00:14;;;;;;;11.20;6.38;;;7.50;99.90;;;;;;5068941;28;20034;-83
2022/09/23 05:02:45;;;;;;;12.93;6.40;;;7.50;99.90;;;;;;5051819;28;20175;-84
2022/09/23 05:05:13;;;;;;;14.63;6.85;;;7.50;99.90;;;;;;5035697;28;20413;-84
2022/09/23 05:07:39;;;;;;;10.45;6.13;;;7.50;99.90;;;;;;5051464;28;20516;-84
2022/09/23 05:10:07;;;;;;;8.88;5.75;;;7.60;99.90;;;;;;5031865;28;20046;-83
2022/09/23 05:12:33;;;;;;;10.68;6.25;;;7.60;99.90;;;;;;5047912;28;20042;-83
2022/09/23 05:15:01;;;;;;;10.93;6.20;;;7.60;99.90;;;;;;5031284;28;21018;-84
2022/09/23 05:17:30;;;;;;;13.30;6.50;;;7.60;99.90;;;;;;5064363;28;20121;-84
2022/09/23 05:19:59;;;;;;;11.07;6.28;;;7.60;99.90;;;;;;5039050;28;20040;-84
2022/09/23 05:22:28;;;;;;;10.32;6.28;;;7.60;99.90;;;;;;5067967;28;20041;-84
2022/09/23 05:24:55;;;;;;;11.13;5.88;;;7.70;99.90;;;;;;5057721;28;20620;-83
2022/09/23 05:27:21;;;;;;;9.45;5.80;;;7.70;99.90;;;;;;5053502;28;20045;-84
2022/09/23 05:29:48;;;;;;;10.45;5.72;;;7.70;99.90;;;;;;5034428;28;20033;-84
2022/09/23 05:32:15;;;;;;;13.25;6.25;;;7.70;99.90;;;;;;5048785;28;20041;-84
2022/09/23 05:34:42;;;;;;;10.07;6.22;;;7.80;99.90;;;;;;5033260;28;20125;-83
2022/09/23 05:37:09;;;;;;;11.20;6.05;;;8.10;99.90;;;;;;5050965;28;20124;-84
2022/09/23 05:39:36;;;;;;;13.45;6.90;;;7.70;99.90;;;;;;5039329;28;20045;-84
2022/09/23 05:42:04;;;;;;;8.88;6.30;;;7.70;99.90;;;;;;5037304;28;20512;-84
2022/09/23 05:44:31;;;;;;;10.40;6.47;;;7.70;99.90;;;;;;5050477;28;20049;-84
2022/09/23 05:46:58;;;;;;;9.88;6.22;;;7.80;99.90;;;;;;5036311;28;20070;-84
2022/09/23 05:49:24;;;;;;;10.57;6.32;;;7.80;99.90;;;;;;5016452;28;20100;-84
2022/09/23 05:51:51;;;;;;;8.77;5.80;;;8.30;99.90;;;;;;5050801;28;20116;-84
2022/09/23 05:54:18;;;;;;;10.23;6.00;;;7.80;99.90;;;;;;5026487;28;20046;-84
2022/09/23 05:56:44;;;;;;;11.10;6.30;;;7.80;99.90;;;;;;5023013;28;20068;-84
2022/09/23 05:59:11;;;;;;;10.52;6.60;;;7.90;99.90;;;;;;5038309;28;20040;-84
2022/09/23 06:01:38;;;;;;;10.18;6.18;;;8.80;99.90;;;;;;5006230;28;20038;-84
2022/09/23 06:04:06;;;;;;;13.30;6.30;;;7.90;99.90;;;;;;5029440;28;20033;-84
2022/09/23 06:06:36;;;;;;;11.80;6.45;;;8.30;99.90;;;;;;5051104;28;20041;-84
2022/09/23 06:09:04;;;;;;;10.07;6.25;;;7.90;99.90;;;;;;5049587;28;20048;-84
2022/09/23 06:11:33;;;;;;;11.38;6.13;;;8.00;99.90;;;;;;5050628;28;20052;-84
2022/09/23 06:14:00;;;;;;;11.38;6.40;;;7.40;99.90;;;;;;5050609;28;20046;-85
2022/09/23 06:16:29;;;;;;;9.63;6.15;;;8.00;99.90;;;;;;5061923;28;20081;-85
2022/09/23 06:18:56;;;;;;;14.50;6.28;;;8.10;99.90;;;;;;5056222;28;20065;-84
2022/09/23 06:21:23;;;;;;;10.68;6.15;;;8.20;99.90;;;;;;5034116;28;20115;-84
2022/09/23 06:23:49;;;;;;;14.05;6.93;;;8.20;99.90;;;;;;5034420;28;20481;-85
2022/09/23 06:26:16;;;;;;;11.27;7.15;;;9.00;99.90;;;;;;5034040;28;20041;-86
2022/09/23 06:28:44;;;;;;;14.20;6.57;;;8.60;99.90;;;;;;5034113;28;20076;-85
2022/09/23 06:31:15;;;;;;;11.52;6.75;;;8.50;99.90;;;;;;5017923;28;20041;-85
2022/09/23 06:33:43;;;;;;;11.00;6.28;;;8.60;99.90;;;;;;5029741;28;20038;-86
2022/09/23 06:36:12;;;;;;;10.55;5.90;;;8.70;99.90;;;;;;5035568;28;20098;-85
2022/09/23 06:38:42;;;;;;;12.52;7.32;;;8.70;99.90;;;;;;5015547;28;20084;-84
2022/09/23 06:41:10;;;;;;;13.02;6.07;;;9.20;99.90;;;;;;5030723;28;20041;-86
2022/09/23 06:43:37;;;;;;;9.63;6.07;;;8.90;99.90;;;;;;5030623;28;20985;-85
2022/09/23 06:46:06;;;;;;;10.23;6.32;;;9.00;99.90;;;;;;5046565;28;20041;-85
2022/09/23 06:48:36;;;;;;;12.30;6.57;;;9.10;99.90;;;;;;5030453;28;20087;-85
2022/09/23 06:51:06;;;;;;;9.98;5.97;;;9.20;99.90;;;;;;5046467;28;20406;-84
2022/09/23 06:53:33;;;;;;;11.82;6.35;;;9.20;99.90;;;;;;5014272;28;20042;-84
2022/09/23 06:56:05;;;;;;;10.07;6.38;;;9.30;99.90;;;;;;5030374;28;20082;-85
2022/09/23 06:58:34;;;;;;;9.95;6.10;;;9.30;99.90;;;;;;5030223;28;20054;-85
2022/09/23 07:01:02;;;;;;;10.45;6.40;;;9.40;99.90;;;;;;5046150;28;20041;-85
2022/09/23 07:03:30;;;;;;;10.77;6.20;;;9.40;99.90;;;;;;5082929;28;20041;-84
2022/09/23 07:05:58;;;;;;;14.25;5.68;;;9.40;99.90;;;;;;5066278;28;20049;-85
2022/09/23 07:08:26;;;;;;;11.02;5.65;;;10.00;99.90;;;;;;5049745;28;20497;-85
2022/09/23 07:13:31;;;;;;;12.50;6.80;;;9.70;99.90;;;;;;5300302;22;20049;-84
2022/09/23 07:16:00;;;;;;;10.02;6.38;;;9.80;99.90;;;;;;5037308;28;20045;-84
2022/09/23 07:18:29;;;;;;;11.20;5.97;;;9.80;99.90;;;;;;5053440;28;20050;-84
2022/09/23 07:20:58;;;;;;;10.52;5.72;;;9.90;99.90;;;;;;5052824;28;20103;-84
2022/09/23 07:23:25;;;;;;;11.77;6.53;;;10.00;99.90;;;;;;5052742;28;20679;-84
2022/09/23 07:25:52;;;;;;;10.68;6.50;;;10.10;99.90;;;;;;5036773;28;20044;-84
2022/09/23 07:28:19;;;;;;;9.95;6.45;;;10.20;99.90;;;;;;5019857;28;20041;-84
2022/09/23 07:30:46;;;;;;;12.20;6.10;;;10.30;99.90;;;;;;5036911;28;20041;-84
2022/09/23 07:33:13;;;;;;;9.88;5.75;;;10.40;99.90;;;;;;5052408;28;20044;-84
2022/09/23 07:35:41;;;;;;;10.75;6.20;;;10.50;99.90;;;;;;5036300;28;20516;-84
2022/09/23 07:38:09;;;;;;;13.05;6.20;;;10.50;99.90;;;;;;5052588;28;20448;-85
2022/09/23 07:40:37;;;;;;;10.10;5.47;;;10.70;99.90;;;;;;5053028;28;20037;-84
2022/09/23 07:43:06;;;;;;;9.43;5.35;;;10.70;99.90;;;;;;5036699;28;20059;-84
2022/09/23 07:45:33;;;;;;;9.60;5.80;;;10.80;99.90;;;;;;5036819;28;20128;-85
2022/09/23 07:48:00;;;;;;;10.32;5.82;;;10.90;99.90;;;;;;5036359;28;20119;-84
2022/09/23 07:50:28;;;;;;;9.30;5.57;;;10.90;99.90;;;;;;5052768;28;20435;-84
2022/09/23 07:52:55;;;;;;;10.13;6.10;;;11.10;99.90;;;;;;5069215;28;20536;-84
2022/09/23 07:55:22;;;;;;;12.27;6.20;;;11.20;99.90;;;;;;5035957;28;20083;-84
2022/09/23 07:57:49;;;;;;;11.55;6.10;;;11.30;99.90;;;;;;5036598;28;20037;-84
2022/09/23 08:00:15;;;;;;;9.43;6.00;;;11.40;99.90;;;;;;5020118;28;20543;-84
2022/09/23 08:02:42;;;;;;;13.48;6.47;;;11.40;99.90;;;;;;5036488;28;20055;-84
2022/09/23 08:05:09;;;;;;;9.85;5.88;;;11.50;99.90;;;;;;5012135;28;20113;-85
2022/09/23 08:07:36;;;;;;;11.60;5.90;;;11.50;99.90;;;;;;5029894;28;20106;-84
2022/09/23 08:10:04;;;;;;;10.63;6.35;;;11.60;99.90;;;;;;5036769;28;20044;-84
2022/09/23 08:12:31;;;;;;;11.98;5.78;;;11.60;99.90;;;;;;5052261;28;20140;-84
2022/09/23 08:14:59;;;;;;;9.48;6.05;;;11.60;99.90;;;;;;5020122;28;20514;-84
2022/09/23 08:17:26;;;;;;;12.90;6.10;;;11.70;99.90;;;;;;5036517;28;20033;-84
2022/09/23 08:19:53;;;;;;;12.35;6.18;;;11.70;99.90;;;;;;5036628;28;20047;-84
2022/09/23 08:22:19;;;;;;;10.18;6.05;;;11.70;99.90;;;;;;5052304;28;20127;-84
2022/09/23 08:24:49;;;;;;;8.60;5.28;;;11.80;99.90;;;;;;5019569;28;20037;-84
2022/09/23 08:27:15;;;;;;;10.52;6.00;;;11.80;99.90;;;;;;5020099;28;20037;-85
2022/09/23 08:29:42;;;;;;;9.98;5.65;;;11.80;99.90;;;;;;5016145;28;20041;-84
2022/09/23 08:32:09;;;;;;;9.60;5.97;;;11.90;99.90;;;;;;5010834;28;20037;-85
2022/09/23 08:34:35;;;;;;;10.38;5.63;;;12.00;99.90;;;;;;5019935;28;20128;-84
2022/09/23 08:37:02;;;;;;;11.80;6.05;;;12.00;99.90;;;;;;5056304;28;20044;-84
2022/09/23 08:39:30;;;;;;;12.13;5.90;;;12.00;99.90;;;;;;5055846;28;20037;-84
2022/09/23 08:42:02;;;;;;;12.15;5.70;;;12.00;99.90;;;;;;5046082;28;20041;-84
2022/09/23 08:44:43;;;;;;;10.57;6.00;;;12.00;99.90;;;;;;5066646;28;20072;-84
2022/09/23 08:47:30;;;;;;;10.15;6.00;;;12.00;99.90;;;;;;5056095;28;20037;-84
2022/09/23 08:50:19;;;;;;;10.48;5.72;;;12.00;99.90;;;;;;5055564;28;20040;-84
2022/09/23 08:53:06;;;;;;;9.73;5.00;;;12.10;99.90;;;;;;5056018;28;20127;-84
2022/09/23 08:55:46;;;;;;;12.00;5.82;;;12.10;99.90;;;;;;5055575;28;20123;-84
2022/09/23 08:58:22;;;;;;;17.38;6.05;;;12.20;99.90;;;;;;5055442;28;20420;-84
2022/09/23 09:01:04;;;;;;;14.48;5.90;;;12.20;99.90;;;;;;5072035;28;20386;-84
2022/09/23 09:03:39;;;;;;;11.98;5.78;;;12.30;99.90;;;;;;5055126;28;20049;-84
2022/09/23 09:06:16;;;;;;;12.88;5.68;;;12.40;99.90;;;;;;5055525;28;20047;-84
2022/09/23 09:08:51;;;;;;;10.18;5.80;;;12.50;99.90;;;;;;5055540;28;20072;-84
2022/09/23 09:11:22;;;;;;;8.50;5.53;;;12.50;99.90;;;;;;5055354;28;20180;-85
2022/09/23 09:14:04;;;;;;;9.77;5.47;;;12.60;99.90;;;;;;5054914;28;20520;-84
2022/09/23 09:17:09;;;;;;;9.38;5.78;;;12.60;99.90;;;;;;5035056;28;20049;-84
2022/09/23 09:19:55;;;;;;;11.68;5.40;;;12.70;99.90;;;;;;4937329;29;20052;-83
2022/09/23 09:22:51;;;;;;;8.40;5.07;;;12.70;99.90;;;;;;5030369;28;20490;-84
2022/09/23 09:25:40;;;;;;;8.60;5.32;;;12.80;99.90;;;;;;5051225;28;20045;-84
2022/09/23 09:28:17;;;;;;;8.93;4.72;;;12.90;99.90;;;;;;5048620;28;20069;-84
2022/09/23 09:30:49;;;;;;;9.90;5.47;;;13.00;99.90;;;;;;5054918;28;20037;-84
2022/09/23 09:33:20;;;;;;;9.55;5.45;;;13.10;99.90;;;;;;5054810;28;20076;-84
2022/09/23 09:36:07;;;;;;;10.73;5.15;;;13.20;99.90;;;;;;5054609;28;20048;-84
2022/09/23 09:38:35;;;;;;;10.95;5.10;;;13.20;99.90;;;;;;5054545;28;20106;-84
2022/09/23 09:41:14;;;;;;;8.23;4.90;;;13.30;99.90;;;;;;5054932;28;20083;-83
2022/09/23 09:43:47;;;;;;;10.70;5.18;;;13.40;99.90;;;;;;5054164;28;20072;-84
2022/09/23 09:47:05;;;;;;;9.50;5.82;;;13.40;99.90;;;;;;5054115;28;20447;-84
2022/09/23 09:49:47;;;;;;;9.10;5.72;;;13.50;99.90;;;;;;5001330;28;20045;-84
2022/09/23 09:52:22;;;;;;;8.45;5.25;;;13.50;99.90;;;;;;5071040;28;20091;-84
2022/09/23 09:54:49;;;;;;;15.40;5.50;;;13.60;99.90;;;;;;5054662;28;20037;-84
2022/09/23 09:57:29;;;;;;;8.40;4.82;;;13.60;99.90;;;;;;5038453;28;20074;-84
2022/09/23 09:59:57;;;;;;;10.85;5.00;;;13.70;99.90;;;;;;5054648;28;20037;-84
2022/09/23 10:02:28;;;;;;;9.18;5.32;;;13.70;99.90;;;;;;5021939;28;20090;-84
2022/09/23 10:05:24;;;;;;;8.75;4.97;;;13.70;99.90;;;;;;5054331;28;20401;-84
2022/09/23 10:07:52;;;;;;;10.38;5.35;;;13.70;99.90;;;;;;5043671;28;20049;-84
2022/09/23 10:10:23;;;;;;;15.15;5.32;;;13.70;99.90;;;;;;5054270;28;20044;-84
2022/09/23 10:12:51;;;;;;;9.68;5.15;;;13.70;99.90;;;;;;5053572;28;20053;-84
2022/09/23 10:15:31;;;;;;;8.93;4.75;;;13.80;99.90;;;;;;5069926;28;20040;-84
2022/09/23 10:18:00;;;;;;;9.18;5.18;;;13.80;99.90;;;;;;5053400;28;20044;-84
2022/09/23 10:20:37;;;;;;;9.43;4.88;;;13.90;99.90;;;;;;5020885;28;20064;-84
2022/09/23 10:23:13;;;;;;;10.07;4.85;;;13.90;99.90;;;;;;5037242;28;20569;-84
2022/09/23 10:25:40;;;;;;;8.32;4.82;;;14.00;99.90;;;;;;5052398;28;20064;-84
2022/09/23 10:28:41;;;;;;;9.07;4.40;;;14.00;99.90;;;;;;5053011;28;20521;-84
2022/09/23 10:31:12;;;;;;;8.65;4.35;;;14.10;99.90;;;;;;5069573;28;20037;-84
2022/09/23 10:33:41;;;;;;;9.20;4.82;;;14.10;99.90;;;;;;5052562;28;20040;-84
2022/09/23 10:36:09;;;;;;;8.57;4.75;;;14.20;99.90;;;;;;5052702;28;20120;-83
2022/09/23 10:38:36;;;;;;;8.23;4.65;;;14.20;99.90;;;;;;5036583;28;20033;-84
2022/09/23 10:47:44;;;;;;;10.52;4.60;;;14.40;99.90;;;;;;4969956;29;20043;-84
2022/09/23 10:50:29;;;;;;;10.30;4.50;;;14.40;99.90;;;;;;5032774;28;20042;-84
2022/09/23 10:53:07;;;;;;;11.00;4.85;;;14.50;99.90;;;;;;5032676;28;20037;-84
2022/09/23 10:55:48;;;;;;;8.63;4.75;;;14.50;99.90;;;;;;5031949;28;20037;-84
2022/09/23 10:58:53;;;;;;;9.50;4.60;;;14.60;99.90;;;;;;5046815;28;20124;-84
2022/09/23 11:01:30;;;;;;;7.78;4.57;;;14.60;99.90;;;;;;5052137;28;20091;-84
2022/09/23 11:04:02;;;;;;;8.60;4.45;;;14.70;99.90;;;;;;5052270;28;20045;-84
2022/09/23 11:06:35;;;;;;;9.73;5.15;;;14.70;99.90;;;;;;5052607;28;20091;-84
2022/09/23 11:09:25;;;;;;;9.15;4.90;;;14.80;99.90;;;;;;5052309;28;20123;-84
2022/09/23 11:12:16;;;;;;;10.10;4.66;;;14.80;99.90;;;;;;5039069;28;1102900;-84
2022/09/23 11:15:03;;;;;;;6.57;4.20;;;14.80;99.90;;;;;;5069429;28;20045;-84
2022/09/23 11:18:01;;;;;;;11.95;5.05;;;14.90;99.90;;;;;;5052836;28;20036;-84
2022/09/23 11:20:58;;;;;;;9.00;4.60;;;15.00;99.90;;;;;;5052838;28;20052;-84
2022/09/23 11:23:34;;;;;;;10.40;4.97;;;15.00;99.90;;;;;;5052899;28;20103;-84
2022/09/23 11:26:22;;;;;;;6.63;4.40;;;15.00;99.90;;;;;;5052904;28;20513;-83
2022/09/23 11:29:01;;;;;;;7.93;4.78;;;15.00;99.90;;;;;;5052510;28;20412;-84
2022/09/23 11:31:34;;;;;;;7.35;4.10;;;15.10;99.90;;;;;;5069103;28;20048;-84
2022/09/23 11:34:39;;;;;;;6.88;4.32;;;15.10;99.90;;;;;;5069031;28;20041;-84
2022/09/23 11:37:12;;;;;;;8.75;5.10;;;15.20;99.90;;;;;;5052843;28;20378;-84
2022/09/23 11:39:48;;;;;;;7.75;3.78;;;15.20;99.90;;;;;;5052143;28;20405;-84
2022/09/23 11:42:27;;;;;;;12.10;4.93;;;15.30;99.90;;;;;;5052558;28;20508;-84
2022/09/23 11:44:58;;;;;;;7.57;4.40;;;15.30;99.90;;;;;;5052311;28;20412;-84
2022/09/23 11:47:36;;;;;;;9.07;4.82;;;15.30;99.90;;;;;;5052816;28;20041;-84
2022/09/23 11:50:18;;;;;;;6.35;3.90;;;15.40;99.90;;;;;;5052620;28;20529;-84
2022/09/23 11:52:52;;;;;;;8.43;4.25;;;15.40;99.90;;;;;;5052136;28;20124;-84
2022/09/23 11:55:31;;;;;;;10.27;4.20;;;15.40;99.90;;;;;;5052538;28;20474;-84
2022/09/23 11:58:18;;;;;;;7.82;4.35;;;15.50;99.90;;;;;;5052305;28;20063;-83
2022/09/23 12:00:53;;;;;;;8.73;4.55;;;15.50;99.90;;;;;;5052432;28;20041;-83
2022/09/23 12:03:56;;;;;;;7.28;4.07;;;15.50;99.90;;;;;;5052493;28;20045;-83
2022/09/23 12:06:35;;;;;;;8.32;4.30;;;15.50;99.90;;;;;;5052388;28;20467;-84
2022/09/23 12:09:13;;;;;;;8.30;4.65;;;15.60;99.90;;;;;;5055572;28;20425;-84
2022/09/23 12:11:48;;;;;;;8.40;4.45;;;15.60;99.90;;;;;;5055772;28;20045;-84
2022/09/23 12:14:32;;;;;;;8.25;4.43;;;15.60;99.90;;;;;;5056141;28;20045;-84
2022/09/23 12:17:21;;;;;;;7.53;4.05;;;15.60;99.90;;;;;;5055903;28;20033;-84
2022/09/23 12:20:09;;;;;;;7.90;4.40;;;15.70;99.90;;;;;;5055633;28;20037;-84
2022/09/23 12:23:03;;;;;;;8.13;4.07;;;15.70;99.90;;;;;;5055978;28;20041;-84
2022/09/23 12:25:36;;;;;;;10.20;4.70;;;15.70;99.90;;;;;;5039793;28;20029;-84
2022/09/23 12:28:25;;;;;;;11.82;4.72;;;15.70;99.90;;;;;;5072161;28;20114;-84
2022/09/23 12:30:55;;;;;;;7.47;4.20;;;15.70;99.90;;;;;;5055033;28;20060;-84
2022/09/23 12:33:31;;;;;;;9.52;4.18;;;15.80;99.90;;;;;;5072268;28;20124;-84
2022/09/23 12:36:05;;;;;;;8.10;4.15;;;15.80;99.90;;;;;;5071886;28;20043;-84
2022/09/23 12:38:47;;;;;;;7.72;4.15;;;15.80;99.90;;;;;;5056139;28;20094;-84
2022/09/23 12:41:37;;;;;;;6.90;3.83;;;15.80;99.90;;;;;;5055800;28;20073;-84
2022/09/23 12:44:09;;;;;;;6.35;3.72;;;15.90;99.90;;;;;;5055742;28;20045;-84
2022/09/23 12:46:36;;;;;;;7.97;4.28;;;15.90;99.90;;;;;;5072522;28;20052;-84
2022/09/23 12:49:05;;;;;;;7.47;4.22;;;15.90;99.90;;;;;;5039233;28;20044;-84
2022/09/23 12:51:34;;;;;;;8.55;3.70;;;16.00;99.90;;;;;;5039452;28;20040;-84
2022/09/23 12:54:21;;;;;;;9.13;3.92;;;16.10;99.90;;;;;;5071648;28;20045;-84
2022/09/23 12:56:54;;;;;;;7.38;3.67;;;16.20;99.90;;;;;;5038949;28;20036;-84
2022/09/23 12:59:25;;;;;;;7.63;4.15;;;16.10;99.90;;;;;;5055716;28;20456;-84
2022/09/23 13:01:53;;;;;;;7.53;3.55;;;16.10;99.90;;;;;;5055597;28;20060;-84
2022/09/23 13:07:26;;;;;;;;;;;16.20;99.90;;;;;;5072134;28;20580;-84
2022/09/23 13:10:05;;;;;;;6.82;3.67;;;16.10;99.90;;;;;;5071549;28;19916;-84
2022/09/23 13:12:37;;;;;;;7.07;3.60;;;16.10;99.90;;;;;;5071501;28;20102;-84
2022/09/23 13:15:29;;;;;;;6.88;3.80;;;16.10;99.90;;;;;;5054558;28;20114;-84
2022/09/23 13:18:15;;;;;;;7.88;3.35;;;16.10;99.90;;;;;;5054367;28;20127;-84
2022/09/23 13:20:42;;;;;;;7.28;3.50;;;16.10;99.90;;;;;;5054952;28;20041;-84
2022/09/23 13:23:32;;;;;;;6.18;3.20;;;16.10;99.90;;;;;;5022186;28;20564;-84
2022/09/23 13:26:01;;;;;;;6.82;3.22;;;16.10;99.90;;;;;;5054779;28;20041;-84
2022/09/23 13:28:36;;;;;;;5.13;2.90;;;16.10;99.90;;;;;;5055014;28;20076;-84
2022/09/23 13:31:05;;;;;;;8.77;3.90;;;16.10;99.90;;;;;;5054697;28;20041;-84
2022/09/23 13:33:44;;;;;;;6.28;3.60;;;16.20;99.90;;;;;;5054930;28;20033;-84
2022/09/23 13:36:16;;;;;;;6.00;3.40;;;16.30;99.90;;;;;;5054806;28;20045;-84